sensor_id;sensor_type;location;lat;lon;timestamp;P1;durP1;ratioP1;P2;durP2;ratioP2
28760;SDS011;15917;50.014;8.352;2023-08-21T00:01:33;9.35;;;4.82;;
28760;SDS011;15917;50.014;8.352;2023-08-21T00:03:58;15.55;;;5.50;;
28760;SDS011;15917;50.014;8.352;2023-08-21T00:06:24;7.80;;;4.82;;
28760;SDS011;15917;50.014;8.352;2023-08-21T00:08:50;7.00;;;5.00;;
28760;SDS011;15917;50.014;8.352;2023-08-21T00:11:15;6.70;;;5.00;;
28760;SDS011;15917;50.014;8.352;2023-08-21T00:13:41;8.38;;;5.28;;
28760;SDS011;15917;50.014;8.352;2023-08-21T00:16:09;12.18;;;4.82;;
28760;SDS011;15917;50.014;8.352;2023-08-21T00:18:36;7.75;;;4.82;;
28760;SDS011;15917;50.014;8.352;2023-08-21T00:21:01;13.70;;;6.22;;
28760;SDS011;15917;50.014;8.352;2023-08-21T00:23:27;10.18;;;5.70;;
28760;SDS011;15917;50.014;8.352;2023-08-21T00:25:53;12.65;;;5.35;;
28760;SDS011;15917;50.014;8.352;2023-08-21T00:28:18;10.77;;;5.28;;
28760;SDS011;15917;50.014;8.352;2023-08-21T00:30:44;10.00;;;5.85;;
28760;SDS011;15917;50.014;8.352;2023-08-21T00:33:09;10.85;;;5.57;;
28760;SDS011;15917;50.014;8.352;2023-08-21T00:35:35;12.55;;;5.30;;
28760;SDS011;15917;50.014;8.352;2023-08-21T00:38:01;9.02;;;6.25;;
28760;SDS011;15917;50.014;8.352;2023-08-21T00:40:27;8.00;;;5.30;;
28760;SDS011;15917;50.014;8.352;2023-08-21T00:42:53;11.57;;;5.47;;
28760;SDS011;15917;50.014;8.352;2023-08-21T00:45:19;8.57;;;5.15;;
28760;SDS011;15917;50.014;8.352;2023-08-21T00:47:45;9.93;;;5.65;;
28760;SDS011;15917;50.014;8.352;2023-08-21T00:50:10;8.20;;;5.93;;
28760;SDS011;15917;50.014;8.352;2023-08-21T00:52:38;11.55;;;6.45;;
28760;SDS011;15917;50.014;8.352;2023-08-21T00:55:05;10.77;;;5.90;;
28760;SDS011;15917;50.014;8.352;2023-08-21T00:57:32;11.48;;;5.78;;
28760;SDS011;15917;50.014;8.352;2023-08-21T00:59:59;8.52;;;5.47;;
28760;SDS011;15917;50.014;8.352;2023-08-21T01:02:25;14.15;;;5.85;;
28760;SDS011;15917;50.014;8.352;2023-08-21T01:04:51;8.50;;;4.93;;
28760;SDS011;15917;50.014;8.352;2023-08-21T01:07:17;12.10;;;6.00;;
28760;SDS011;15917;50.014;8.352;2023-08-21T01:09:47;12.13;;;5.72;;
28760;SDS011;15917;50.014;8.352;2023-08-21T01:15:00;8.90;;;5.57;;
28760;SDS011;15917;50.014;8.352;2023-08-21T01:17:30;15.95;;;5.78;;
28760;SDS011;15917;50.014;8.352;2023-08-21T01:20:00;9.75;;;5.07;;
28760;SDS011;15917;50.014;8.352;2023-08-21T01:22:27;8.48;;;6.22;;
28760;SDS011;15917;50.014;8.352;2023-08-21T01:25:00;13.88;;;5.93;;
28760;SDS011;15917;50.014;8.352;2023-08-21T01:27:25;11.10;;;6.18;;
28760;SDS011;15917;50.014;8.352;2023-08-21T01:29:51;7.85;;;5.45;;
28760;SDS011;15917;50.014;8.352;2023-08-21T01:32:21;7.43;;;5.28;;
28760;SDS011;15917;50.014;8.352;2023-08-21T01:34:54;13.73;;;6.97;;
28760;SDS011;15917;50.014;8.352;2023-08-21T01:37:21;12.45;;;5.70;;
28760;SDS011;15917;50.014;8.352;2023-08-21T01:39:48;9.50;;;5.65;;
28760;SDS011;15917;50.014;8.352;2023-08-21T01:42:14;12.13;;;5.97;;
28760;SDS011;15917;50.014;8.352;2023-08-21T01:44:39;11.10;;;5.80;;
28760;SDS011;15917;50.014;8.352;2023-08-21T01:47:06;12.68;;;6.20;;
28760;SDS011;15917;50.014;8.352;2023-08-21T01:49:32;13.10;;;6.03;;
28760;SDS011;15917;50.014;8.352;2023-08-21T01:51:57;10.15;;;6.25;;
28760;SDS011;15917;50.014;8.352;2023-08-21T01:54:24;8.10;;;5.67;;
28760;SDS011;15917;50.014;8.352;2023-08-21T01:56:50;10.13;;;6.72;;
28760;SDS011;15917;50.014;8.352;2023-08-21T01:59:16;13.68;;;6.00;;
28760;SDS011;15917;50.014;8.352;2023-08-21T02:01:42;18.90;;;6.75;;
28760;SDS011;15917;50.014;8.352;2023-08-21T02:04:07;11.60;;;5.80;;
28760;SDS011;15917;50.014;8.352;2023-08-21T02:06:33;12.43;;;6.47;;
28760;SDS011;15917;50.014;8.352;2023-08-21T02:08:59;10.07;;;6.20;;
28760;SDS011;15917;50.014;8.352;2023-08-21T02:11:25;9.20;;;6.70;;
28760;SDS011;15917;50.014;8.352;2023-08-21T02:13:51;11.18;;;5.88;;
28760;SDS011;15917;50.014;8.352;2023-08-21T02:16:17;8.52;;;6.15;;
28760;SDS011;15917;50.014;8.352;2023-08-21T02:18:42;10.45;;;6.82;;
28760;SDS011;15917;50.014;8.352;2023-08-21T02:21:08;12.48;;;6.13;;
28760;SDS011;15917;50.014;8.352;2023-08-21T02:23:34;8.20;;;5.70;;
28760;SDS011;15917;50.014;8.352;2023-08-21T02:25:59;12.10;;;6.03;;
28760;SDS011;15917;50.014;8.352;2023-08-21T02:28:25;9.68;;;6.60;;
28760;SDS011;15917;50.014;8.352;2023-08-21T02:30:50;7.72;;;5.80;;
28760;SDS011;15917;50.014;8.352;2023-08-21T02:33:16;13.30;;;6.22;;
28760;SDS011;15917;50.014;8.352;2023-08-21T02:35:42;12.13;;;6.45;;
28760;SDS011;15917;50.014;8.352;2023-08-21T02:38:08;12.93;;;7.10;;
28760;SDS011;15917;50.014;8.352;2023-08-21T02:40:34;11.27;;;6.50;;
28760;SDS011;15917;50.014;8.352;2023-08-21T02:43:00;10.32;;;6.38;;
28760;SDS011;15917;50.014;8.352;2023-08-21T02:45:26;11.48;;;7.43;;
28760;SDS011;15917;50.014;8.352;2023-08-21T02:47:51;10.32;;;7.22;;
28760;SDS011;15917;50.014;8.352;2023-08-21T02:50:17;10.32;;;6.78;;
28760;SDS011;15917;50.014;8.352;2023-08-21T02:52:43;19.38;;;8.02;;
28760;SDS011;15917;50.014;8.352;2023-08-21T02:55:08;10.15;;;7.55;;
28760;SDS011;15917;50.014;8.352;2023-08-21T02:57:34;15.55;;;7.32;;
28760;SDS011;15917;50.014;8.352;2023-08-21T03:00:00;13.55;;;8.45;;
28760;SDS011;15917;50.014;8.352;2023-08-21T03:02:25;11.88;;;7.13;;
28760;SDS011;15917;50.014;8.352;2023-08-21T03:04:52;12.25;;;7.88;;
28760;SDS011;15917;50.014;8.352;2023-08-21T03:07:17;13.18;;;8.20;;
28760;SDS011;15917;50.014;8.352;2023-08-21T03:09:44;9.80;;;7.60;;
28760;SDS011;15917;50.014;8.352;2023-08-21T03:12:12;11.93;;;8.00;;
28760;SDS011;15917;50.014;8.352;2023-08-21T03:14:37;17.25;;;8.25;;
28760;SDS011;15917;50.014;8.352;2023-08-21T03:17:03;13.55;;;7.55;;
28760;SDS011;15917;50.014;8.352;2023-08-21T03:19:29;13.35;;;7.28;;
28760;SDS011;15917;50.014;8.352;2023-08-21T03:21:55;20.63;;;7.78;;
28760;SDS011;15917;50.014;8.352;2023-08-21T03:24:21;12.43;;;7.40;;
28760;SDS011;15917;50.014;8.352;2023-08-21T03:26:47;14.82;;;8.55;;
28760;SDS011;15917;50.014;8.352;2023-08-21T03:29:13;13.20;;;8.73;;
28760;SDS011;15917;50.014;8.352;2023-08-21T03:31:40;13.02;;;7.80;;
28760;SDS011;15917;50.014;8.352;2023-08-21T03:34:05;13.20;;;8.88;;
28760;SDS011;15917;50.014;8.352;2023-08-21T03:36:31;12.55;;;8.52;;
28760;SDS011;15917;50.014;8.352;2023-08-21T03:38:59;12.18;;;7.78;;
28760;SDS011;15917;50.014;8.352;2023-08-21T03:41:32;19.48;;;8.45;;
28760;SDS011;15917;50.014;8.352;2023-08-21T03:43:59;14.53;;;8.10;;
28760;SDS011;15917;50.014;8.352;2023-08-21T03:46:24;17.38;;;8.43;;
28760;SDS011;15917;50.014;8.352;2023-08-21T03:48:50;14.30;;;8.50;;
28760;SDS011;15917;50.014;8.352;2023-08-21T03:51:16;14.35;;;8.95;;
28760;SDS011;15917;50.014;8.352;2023-08-21T03:53:42;17.42;;;8.00;;
28760;SDS011;15917;50.014;8.352;2023-08-21T03:56:07;11.27;;;8.52;;
28760;SDS011;15917;50.014;8.352;2023-08-21T03:58:33;13.73;;;8.40;;
28760;SDS011;15917;50.014;8.352;2023-08-21T04:00:59;17.35;;;8.60;;
28760;SDS011;15917;50.014;8.352;2023-08-21T04:03:24;15.30;;;8.45;;
28760;SDS011;15917;50.014;8.352;2023-08-21T04:05:52;12.35;;;7.55;;
28760;SDS011;15917;50.014;8.352;2023-08-21T04:08:18;15.52;;;8.80;;
28760;SDS011;15917;50.014;8.352;2023-08-21T04:10:44;13.25;;;9.00;;
28760;SDS011;15917;50.014;8.352;2023-08-21T04:13:10;12.18;;;8.07;;
28760;SDS011;15917;50.014;8.352;2023-08-21T04:15:35;16.45;;;9.43;;
28760;SDS011;15917;50.014;8.352;2023-08-21T04:18:03;18.63;;;8.93;;
28760;SDS011;15917;50.014;8.352;2023-08-21T04:20:30;12.32;;;8.25;;
28760;SDS011;15917;50.014;8.352;2023-08-21T04:22:56;17.90;;;8.40;;
28760;SDS011;15917;50.014;8.352;2023-08-21T04:25:21;13.75;;;8.05;;
28760;SDS011;15917;50.014;8.352;2023-08-21T04:27:47;17.05;;;9.77;;
28760;SDS011;15917;50.014;8.352;2023-08-21T04:30:13;14.73;;;9.05;;
28760;SDS011;15917;50.014;8.352;2023-08-21T04:32:39;13.65;;;8.73;;
28760;SDS011;15917;50.014;8.352;2023-08-21T04:35:06;13.48;;;8.40;;
28760;SDS011;15917;50.014;8.352;2023-08-21T04:37:33;25.25;;;8.73;;
28760;SDS011;15917;50.014;8.352;2023-08-21T04:40:00;13.20;;;8.70;;
28760;SDS011;15917;50.014;8.352;2023-08-21T04:42:26;11.30;;;7.82;;
28760;SDS011;15917;50.014;8.352;2023-08-21T04:44:52;19.92;;;8.57;;
28760;SDS011;15917;50.014;8.352;2023-08-21T04:47:19;15.93;;;8.70;;
28760;SDS011;15917;50.014;8.352;2023-08-21T04:49:47;12.50;;;8.27;;
28760;SDS011;15917;50.014;8.352;2023-08-21T04:52:14;15.02;;;8.52;;
28760;SDS011;15917;50.014;8.352;2023-08-21T04:54:39;17.13;;;8.60;;
28760;SDS011;15917;50.014;8.352;2023-08-21T04:57:05;13.70;;;8.27;;
28760;SDS011;15917;50.014;8.352;2023-08-21T04:59:31;13.25;;;8.20;;
28760;SDS011;15917;50.014;8.352;2023-08-21T05:01:57;17.92;;;8.15;;
28760;SDS011;15917;50.014;8.352;2023-08-21T05:04:22;13.55;;;8.60;;
28760;SDS011;15917;50.014;8.352;2023-08-21T05:06:49;14.20;;;8.48;;
28760;SDS011;15917;50.014;8.352;2023-08-21T05:09:15;13.73;;;7.88;;
28760;SDS011;15917;50.014;8.352;2023-08-21T05:11:41;13.63;;;8.18;;
28760;SDS011;15917;50.014;8.352;2023-08-21T05:14:06;15.02;;;8.52;;
28760;SDS011;15917;50.014;8.352;2023-08-21T05:16:33;10.67;;;8.50;;
28760;SDS011;15917;50.014;8.352;2023-08-21T05:18:59;15.95;;;8.95;;
28760;SDS011;15917;50.014;8.352;2023-08-21T05:21:25;17.52;;;8.80;;
28760;SDS011;15917;50.014;8.352;2023-08-21T05:23:51;15.93;;;8.25;;
28760;SDS011;15917;50.014;8.352;2023-08-21T05:26:16;15.90;;;9.00;;
28760;SDS011;15917;50.014;8.352;2023-08-21T05:28:42;13.40;;;8.40;;
28760;SDS011;15917;50.014;8.352;2023-08-21T05:31:08;13.70;;;7.97;;
28760;SDS011;15917;50.014;8.352;2023-08-21T05:33:44;14.63;;;8.88;;
28760;SDS011;15917;50.014;8.352;2023-08-21T05:36:10;12.50;;;7.70;;
28760;SDS011;15917;50.014;8.352;2023-08-21T05:38:36;14.45;;;8.02;;
28760;SDS011;15917;50.014;8.352;2023-08-21T05:41:02;17.05;;;8.95;;
28760;SDS011;15917;50.014;8.352;2023-08-21T05:43:27;14.93;;;7.85;;
28760;SDS011;15917;50.014;8.352;2023-08-21T05:45:54;13.10;;;8.50;;
28760;SDS011;15917;50.014;8.352;2023-08-21T05:48:23;15.82;;;9.02;;
28760;SDS011;15917;50.014;8.352;2023-08-21T05:50:57;15.27;;;8.10;;
28760;SDS011;15917;50.014;8.352;2023-08-21T05:53:24;17.42;;;7.85;;
28760;SDS011;15917;50.014;8.352;2023-08-21T05:55:52;17.02;;;7.95;;
28760;SDS011;15917;50.014;8.352;2023-08-21T05:58:18;14.45;;;8.63;;
28760;SDS011;15917;50.014;8.352;2023-08-21T06:00:44;15.30;;;9.50;;
28760;SDS011;15917;50.014;8.352;2023-08-21T06:05:53;14.82;;;7.95;;
28760;SDS011;15917;50.014;8.352;2023-08-21T06:08:19;16.92;;;8.68;;
28760;SDS011;15917;50.014;8.352;2023-08-21T06:10:45;13.45;;;8.50;;
28760;SDS011;15917;50.014;8.352;2023-08-21T06:13:15;13.73;;;7.50;;
28760;SDS011;15917;50.014;8.352;2023-08-21T06:15:44;14.90;;;9.23;;
28760;SDS011;15917;50.014;8.352;2023-08-21T06:18:10;11.02;;;8.48;;
28760;SDS011;15917;50.014;8.352;2023-08-21T06:20:36;11.13;;;8.13;;
28760;SDS011;15917;50.014;8.352;2023-08-21T06:23:02;16.38;;;8.90;;
28760;SDS011;15917;50.014;8.352;2023-08-21T06:25:28;18.38;;;8.18;;
28760;SDS011;15917;50.014;8.352;2023-08-21T06:27:55;12.75;;;8.95;;
28760;SDS011;15917;50.014;8.352;2023-08-21T06:30:21;24.40;;;8.48;;
28760;SDS011;15917;50.014;8.352;2023-08-21T06:32:47;13.63;;;7.95;;
28760;SDS011;15917;50.014;8.352;2023-08-21T06:35:12;14.85;;;9.10;;
28760;SDS011;15917;50.014;8.352;2023-08-21T06:37:40;12.77;;;7.88;;
28760;SDS011;15917;50.014;8.352;2023-08-21T06:40:07;16.88;;;9.25;;
28760;SDS011;15917;50.014;8.352;2023-08-21T06:42:33;19.75;;;9.10;;
28760;SDS011;15917;50.014;8.352;2023-08-21T06:44:59;21.33;;;9.00;;
28760;SDS011;15917;50.014;8.352;2023-08-21T06:47:25;11.63;;;8.32;;
28760;SDS011;15917;50.014;8.352;2023-08-21T06:49:50;15.32;;;9.80;;
28760;SDS011;15917;50.014;8.352;2023-08-21T06:52:16;19.02;;;9.45;;
28760;SDS011;15917;50.014;8.352;2023-08-21T06:54:42;18.92;;;9.50;;
28760;SDS011;15917;50.014;8.352;2023-08-21T06:57:08;16.35;;;8.38;;
28760;SDS011;15917;50.014;8.352;2023-08-21T06:59:33;14.02;;;8.30;;
28760;SDS011;15917;50.014;8.352;2023-08-21T07:02:01;15.20;;;9.25;;
28760;SDS011;15917;50.014;8.352;2023-08-21T07:04:27;12.80;;;8.68;;
28760;SDS011;15917;50.014;8.352;2023-08-21T07:06:53;15.65;;;8.55;;
28760;SDS011;15917;50.014;8.352;2023-08-21T07:09:19;16.55;;;9.15;;
28760;SDS011;15917;50.014;8.352;2023-08-21T07:11:45;13.52;;;8.88;;
28760;SDS011;15917;50.014;8.352;2023-08-21T07:14:11;17.33;;;8.85;;
28760;SDS011;15917;50.014;8.352;2023-08-21T07:16:39;15.68;;;7.70;;
28760;SDS011;15917;50.014;8.352;2023-08-21T07:19:04;11.05;;;7.78;;
28760;SDS011;15917;50.014;8.352;2023-08-21T07:21:30;12.60;;;8.00;;
28760;SDS011;15917;50.014;8.352;2023-08-21T07:23:56;29.55;;;8.98;;
28760;SDS011;15917;50.014;8.352;2023-08-21T07:26:22;15.80;;;7.88;;
28760;SDS011;15917;50.014;8.352;2023-08-21T07:28:47;12.68;;;7.80;;
28760;SDS011;15917;50.014;8.352;2023-08-21T07:31:13;17.30;;;7.72;;
28760;SDS011;15917;50.014;8.352;2023-08-21T07:33:39;12.90;;;7.43;;
28760;SDS011;15917;50.014;8.352;2023-08-21T07:36:04;13.23;;;8.20;;
28760;SDS011;15917;50.014;8.352;2023-08-21T07:38:31;15.60;;;7.25;;
28760;SDS011;15917;50.014;8.352;2023-08-21T07:43:24;16.25;;;8.07;;
28760;SDS011;15917;50.014;8.352;2023-08-21T07:45:50;15.15;;;7.30;;
28760;SDS011;15917;50.014;8.352;2023-08-21T07:48:15;14.85;;;7.82;;
28760;SDS011;15917;50.014;8.352;2023-08-21T07:50:41;15.32;;;7.75;;
28760;SDS011;15917;50.014;8.352;2023-08-21T07:53:06;22.77;;;8.13;;
28760;SDS011;15917;50.014;8.352;2023-08-21T07:55:32;18.15;;;7.65;;
28760;SDS011;15917;50.014;8.352;2023-08-21T07:57:58;12.02;;;7.43;;
28760;SDS011;15917;50.014;8.352;2023-08-21T08:00:23;11.23;;;7.53;;
28760;SDS011;15917;50.014;8.352;2023-08-21T08:02:49;18.73;;;8.02;;
28760;SDS011;15917;50.014;8.352;2023-08-21T08:05:14;13.10;;;8.10;;
28760;SDS011;15917;50.014;8.352;2023-08-21T08:07:40;11.93;;;7.82;;
28760;SDS011;15917;50.014;8.352;2023-08-21T08:10:06;11.75;;;7.82;;
28760;SDS011;15917;50.014;8.352;2023-08-21T08:12:31;12.60;;;8.05;;
28760;SDS011;15917;50.014;8.352;2023-08-21T08:14:58;11.02;;;7.85;;
28760;SDS011;15917;50.014;8.352;2023-08-21T08:17:23;18.30;;;8.27;;
28760;SDS011;15917;50.014;8.352;2023-08-21T08:19:49;14.10;;;8.65;;
28760;SDS011;15917;50.014;8.352;2023-08-21T08:22:14;15.23;;;8.25;;
28760;SDS011;15917;50.014;8.352;2023-08-21T08:24:40;21.50;;;8.20;;
28760;SDS011;15917;50.014;8.352;2023-08-21T08:27:06;20.80;;;7.88;;
28760;SDS011;15917;50.014;8.352;2023-08-21T08:29:32;20.73;;;8.38;;
28760;SDS011;15917;50.014;8.352;2023-08-21T08:31:57;14.18;;;7.28;;
28760;SDS011;15917;50.014;8.352;2023-08-21T08:34:23;15.57;;;8.13;;
28760;SDS011;15917;50.014;8.352;2023-08-21T08:36:49;17.42;;;8.30;;
28760;SDS011;15917;50.014;8.352;2023-08-21T08:39:17;12.82;;;7.15;;
28760;SDS011;15917;50.014;8.352;2023-08-21T08:42:02;20.75;;;7.97;;
28760;SDS011;15917;50.014;8.352;2023-08-21T08:44:29;13.25;;;7.53;;
28760;SDS011;15917;50.014;8.352;2023-08-21T08:46:55;16.35;;;8.05;;
28760;SDS011;15917;50.014;8.352;2023-08-21T08:49:22;18.88;;;7.60;;
28760;SDS011;15917;50.014;8.352;2023-08-21T08:51:49;15.82;;;7.25;;
28760;SDS011;15917;50.014;8.352;2023-08-21T08:54:16;11.15;;;7.55;;
28760;SDS011;15917;50.014;8.352;2023-08-21T08:56:43;13.93;;;7.03;;
28760;SDS011;15917;50.014;8.352;2023-08-21T08:59:08;10.73;;;7.65;;
28760;SDS011;15917;50.014;8.352;2023-08-21T09:01:34;16.83;;;8.70;;
28760;SDS011;15917;50.014;8.352;2023-08-21T09:04:00;11.77;;;7.78;;
28760;SDS011;15917;50.014;8.352;2023-08-21T09:06:26;16.20;;;8.02;;
28760;SDS011;15917;50.014;8.352;2023-08-21T09:08:53;17.38;;;9.38;;
28760;SDS011;15917;50.014;8.352;2023-08-21T09:11:20;10.63;;;7.13;;
28760;SDS011;15917;50.014;8.352;2023-08-21T09:13:45;14.23;;;7.47;;
28760;SDS011;15917;50.014;8.352;2023-08-21T09:16:14;17.10;;;7.55;;
28760;SDS011;15917;50.014;8.352;2023-08-21T09:21:17;18.00;;;8.15;;
28760;SDS011;15917;50.014;8.352;2023-08-21T09:23:44;10.82;;;7.85;;
28760;SDS011;15917;50.014;8.352;2023-08-21T09:26:11;12.43;;;8.25;;
28760;SDS011;15917;50.014;8.352;2023-08-21T09:28:50;14.80;;;8.60;;
28760;SDS011;15917;50.014;8.352;2023-08-21T09:31:21;13.82;;;8.82;;
28760;SDS011;15917;50.014;8.352;2023-08-21T09:34:01;15.70;;;7.03;;
28760;SDS011;15917;50.014;8.352;2023-08-21T09:36:31;13.55;;;7.78;;
28760;SDS011;15917;50.014;8.352;2023-08-21T09:38:57;11.80;;;7.60;;
28760;SDS011;15917;50.014;8.352;2023-08-21T09:41:23;12.93;;;7.30;;
28760;SDS011;15917;50.014;8.352;2023-08-21T09:43:51;22.42;;;7.40;;
28760;SDS011;15917;50.014;8.352;2023-08-21T09:46:17;9.00;;;6.93;;
28760;SDS011;15917;50.014;8.352;2023-08-21T09:48:49;24.08;;;8.13;;
28760;SDS011;15917;50.014;8.352;2023-08-21T09:51:17;11.52;;;7.28;;
28760;SDS011;15917;50.014;8.352;2023-08-21T09:53:43;11.85;;;6.70;;
28760;SDS011;15917;50.014;8.352;2023-08-21T09:56:09;12.23;;;6.50;;
28760;SDS011;15917;50.014;8.352;2023-08-21T09:58:36;13.05;;;7.10;;
28760;SDS011;15917;50.014;8.352;2023-08-21T10:01:04;10.23;;;7.15;;
28760;SDS011;15917;50.014;8.352;2023-08-21T10:03:37;11.45;;;6.43;;
28760;SDS011;15917;50.014;8.352;2023-08-21T10:06:04;10.95;;;6.75;;
28760;SDS011;15917;50.014;8.352;2023-08-21T10:08:31;11.80;;;6.10;;
28760;SDS011;15917;50.014;8.352;2023-08-21T10:11:01;8.35;;;5.80;;
28760;SDS011;15917;50.014;8.352;2023-08-21T10:13:30;11.77;;;5.43;;
28760;SDS011;15917;50.014;8.352;2023-08-21T10:15:57;11.38;;;5.05;;
28760;SDS011;15917;50.014;8.352;2023-08-21T10:18:24;8.48;;;5.13;;
28760;SDS011;15917;50.014;8.352;2023-08-21T10:20:54;7.90;;;4.47;;
28760;SDS011;15917;50.014;8.352;2023-08-21T10:23:24;7.40;;;4.75;;
28760;SDS011;15917;50.014;8.352;2023-08-21T10:25:54;8.43;;;4.32;;
28760;SDS011;15917;50.014;8.352;2023-08-21T10:28:23;10.02;;;5.20;;
28760;SDS011;15917;50.014;8.352;2023-08-21T10:30:49;9.77;;;5.32;;
28760;SDS011;15917;50.014;8.352;2023-08-21T10:33:15;9.18;;;5.30;;
28760;SDS011;15917;50.014;8.352;2023-08-21T10:35:40;11.00;;;4.65;;
28760;SDS011;15917;50.014;8.352;2023-08-21T10:38:13;7.63;;;4.90;;
28760;SDS011;15917;50.014;8.352;2023-08-21T10:43:44;20.15;;;7.80;;
28760;SDS011;15917;50.014;8.352;2023-08-21T10:46:10;13.07;;;7.10;;
28760;SDS011;15917;50.014;8.352;2023-08-21T10:48:37;20.17;;;6.67;;
28760;SDS011;15917;50.014;8.352;2023-08-21T10:51:06;8.48;;;6.22;;
28760;SDS011;15917;50.014;8.352;2023-08-21T10:53:34;10.90;;;5.38;;
28760;SDS011;15917;50.014;8.352;2023-08-21T10:56:01;11.18;;;5.22;;
28760;SDS011;15917;50.014;8.352;2023-08-21T10:58:42;8.88;;;5.10;;
28760;SDS011;15917;50.014;8.352;2023-08-21T11:01:08;19.92;;;4.88;;
28760;SDS011;15917;50.014;8.352;2023-08-21T11:03:38;8.43;;;4.47;;
28760;SDS011;15917;50.014;8.352;2023-08-21T11:06:05;9.13;;;5.05;;
28760;SDS011;15917;50.014;8.352;2023-08-21T11:10:58;9.85;;;4.35;;
28760;SDS011;15917;50.014;8.352;2023-08-21T11:13:24;6.68;;;3.63;;
28760;SDS011;15917;50.014;8.352;2023-08-21T11:16:00;12.05;;;4.07;;
28760;SDS011;15917;50.014;8.352;2023-08-21T11:18:34;10.02;;;4.43;;
28760;SDS011;15917;50.014;8.352;2023-08-21T11:21:05;12.73;;;5.07;;
28760;SDS011;15917;50.014;8.352;2023-08-21T11:23:33;10.63;;;4.18;;
28760;SDS011;15917;50.014;8.352;2023-08-21T11:26:00;5.97;;;4.28;;
28760;SDS011;15917;50.014;8.352;2023-08-21T11:28:28;7.90;;;3.90;;
28760;SDS011;15917;50.014;8.352;2023-08-21T11:30:55;8.07;;;3.63;;
28760;SDS011;15917;50.014;8.352;2023-08-21T11:33:21;8.20;;;3.60;;
28760;SDS011;15917;50.014;8.352;2023-08-21T11:35:47;10.35;;;3.88;;
28760;SDS011;15917;50.014;8.352;2023-08-21T11:38:14;9.02;;;4.10;;
28760;SDS011;15917;50.014;8.352;2023-08-21T11:40:57;7.00;;;3.88;;
28760;SDS011;15917;50.014;8.352;2023-08-21T11:43:34;4.78;;;3.33;;
28760;SDS011;15917;50.014;8.352;2023-08-21T11:46:04;9.02;;;3.40;;
28760;SDS011;15917;50.014;8.352;2023-08-21T11:48:31;8.30;;;4.63;;
28760;SDS011;15917;50.014;8.352;2023-08-21T11:50:57;6.60;;;4.03;;
28760;SDS011;15917;50.014;8.352;2023-08-21T11:53:30;8.80;;;4.18;;
28760;SDS011;15917;50.014;8.352;2023-08-21T11:55:58;7.53;;;3.72;;
28760;SDS011;15917;50.014;8.352;2023-08-21T11:58:26;6.97;;;3.80;;
28760;SDS011;15917;50.014;8.352;2023-08-21T12:00:52;7.72;;;3.70;;
28760;SDS011;15917;50.014;8.352;2023-08-21T12:03:18;10.50;;;3.63;;
28760;SDS011;15917;50.014;8.352;2023-08-21T12:05:44;5.03;;;3.20;;
28760;SDS011;15917;50.014;8.352;2023-08-21T12:08:10;5.85;;;3.50;;
28760;SDS011;15917;50.014;8.352;2023-08-21T12:10:35;3.55;;;3.05;;
28760;SDS011;15917;50.014;8.352;2023-08-21T12:13:01;7.05;;;3.58;;
28760;SDS011;15917;50.014;8.352;2023-08-21T12:15:27;4.25;;;2.88;;
28760;SDS011;15917;50.014;8.352;2023-08-21T12:17:52;10.77;;;3.78;;
28760;SDS011;15917;50.014;8.352;2023-08-21T12:20:18;18.45;;;3.42;;
28760;SDS011;15917;50.014;8.352;2023-08-21T12:22:44;9.50;;;3.78;;
28760;SDS011;15917;50.014;8.352;2023-08-21T12:25:09;9.75;;;3.55;;
28760;SDS011;15917;50.014;8.352;2023-08-21T12:27:35;5.53;;;3.40;;
28760;SDS011;15917;50.014;8.352;2023-08-21T12:30:01;5.10;;;2.95;;
28760;SDS011;15917;50.014;8.352;2023-08-21T12:32:27;5.85;;;3.67;;
28760;SDS011;15917;50.014;8.352;2023-08-21T12:34:53;5.38;;;3.50;;
28760;SDS011;15917;50.014;8.352;2023-08-21T12:37:19;5.40;;;3.38;;
28760;SDS011;15917;50.014;8.352;2023-08-21T12:39:44;9.20;;;3.30;;
28760;SDS011;15917;50.014;8.352;2023-08-21T12:42:10;4.85;;;3.45;;
28760;SDS011;15917;50.014;8.352;2023-08-21T12:44:36;4.57;;;3.28;;
28760;SDS011;15917;50.014;8.352;2023-08-21T12:47:02;6.10;;;3.25;;
28760;SDS011;15917;50.014;8.352;2023-08-21T12:49:27;14.23;;;3.38;;
28760;SDS011;15917;50.014;8.352;2023-08-21T12:51:53;3.70;;;2.50;;
28760;SDS011;15917;50.014;8.352;2023-08-21T12:54:20;4.03;;;2.55;;
28760;SDS011;15917;50.014;8.352;2023-08-21T12:56:46;3.80;;;2.10;;
28760;SDS011;15917;50.014;8.352;2023-08-21T12:59:12;4.10;;;2.35;;
28760;SDS011;15917;50.014;8.352;2023-08-21T13:01:38;4.15;;;1.95;;
28760;SDS011;15917;50.014;8.352;2023-08-21T13:04:04;5.30;;;1.83;;
28760;SDS011;15917;50.014;8.352;2023-08-21T13:06:30;11.73;;;2.67;;
28760;SDS011;15917;50.014;8.352;2023-08-21T13:08:55;7.57;;;2.30;;
28760;SDS011;15917;50.014;8.352;2023-08-21T13:11:21;23.52;;;3.50;;
28760;SDS011;15917;50.014;8.352;2023-08-21T13:13:47;22.30;;;2.78;;
28760;SDS011;15917;50.014;8.352;2023-08-21T13:16:12;9.20;;;2.08;;
28760;SDS011;15917;50.014;8.352;2023-08-21T13:18:38;5.43;;;2.28;;
28760;SDS011;15917;50.014;8.352;2023-08-21T13:21:04;5.18;;;2.17;;
28760;SDS011;15917;50.014;8.352;2023-08-21T13:23:29;11.75;;;2.53;;
28760;SDS011;15917;50.014;8.352;2023-08-21T13:25:56;3.28;;;1.98;;
28760;SDS011;15917;50.014;8.352;2023-08-21T13:28:22;9.60;;;2.47;;
28760;SDS011;15917;50.014;8.352;2023-08-21T13:30:49;4.28;;;1.88;;
28760;SDS011;15917;50.014;8.352;2023-08-21T13:33:14;2.95;;;2.13;;
28760;SDS011;15917;50.014;8.352;2023-08-21T13:35:43;8.50;;;2.15;;
28760;SDS011;15917;50.014;8.352;2023-08-21T13:38:09;5.07;;;1.83;;
28760;SDS011;15917;50.014;8.352;2023-08-21T13:40:35;4.38;;;2.05;;
28760;SDS011;15917;50.014;8.352;2023-08-21T13:43:00;2.83;;;1.73;;
28760;SDS011;15917;50.014;8.352;2023-08-21T13:45:26;3.90;;;1.83;;
28760;SDS011;15917;50.014;8.352;2023-08-21T13:47:52;5.95;;;2.33;;
28760;SDS011;15917;50.014;8.352;2023-08-21T13:50:18;2.88;;;1.70;;
28760;SDS011;15917;50.014;8.352;2023-08-21T13:52:44;5.45;;;1.98;;
28760;SDS011;15917;50.014;8.352;2023-08-21T13:55:11;3.85;;;2.03;;
28760;SDS011;15917;50.014;8.352;2023-08-21T13:57:38;2.70;;;2.15;;
28760;SDS011;15917;50.014;8.352;2023-08-21T14:00:04;2.28;;;1.38;;
28760;SDS011;15917;50.014;8.352;2023-08-21T14:02:37;4.97;;;1.90;;
28760;SDS011;15917;50.014;8.352;2023-08-21T14:05:03;6.68;;;1.77;;
28760;SDS011;15917;50.014;8.352;2023-08-21T14:07:30;5.50;;;1.65;;
28760;SDS011;15917;50.014;8.352;2023-08-21T14:09:56;4.65;;;1.98;;
28760;SDS011;15917;50.014;8.352;2023-08-21T14:12:22;2.47;;;1.25;;
28760;SDS011;15917;50.014;8.352;2023-08-21T14:14:48;3.03;;;2.10;;
28760;SDS011;15917;50.014;8.352;2023-08-21T14:17:14;5.95;;;1.98;;
28760;SDS011;15917;50.014;8.352;2023-08-21T14:19:40;2.65;;;1.77;;
28760;SDS011;15917;50.014;8.352;2023-08-21T14:22:06;5.38;;;1.80;;
28760;SDS011;15917;50.014;8.352;2023-08-21T14:24:32;3.38;;;1.60;;
28760;SDS011;15917;50.014;8.352;2023-08-21T14:26:57;4.38;;;1.90;;
28760;SDS011;15917;50.014;8.352;2023-08-21T14:29:23;8.27;;;1.95;;
28760;SDS011;15917;50.014;8.352;2023-08-21T14:31:49;5.03;;;2.15;;
28760;SDS011;15917;50.014;8.352;2023-08-21T14:34:18;3.95;;;2.13;;
28760;SDS011;15917;50.014;8.352;2023-08-21T14:36:45;7.32;;;2.38;;
28760;SDS011;15917;50.014;8.352;2023-08-21T14:39:11;6.25;;;2.17;;
28760;SDS011;15917;50.014;8.352;2023-08-21T14:41:37;7.13;;;2.38;;
28760;SDS011;15917;50.014;8.352;2023-08-21T14:44:03;4.10;;;1.95;;
28760;SDS011;15917;50.014;8.352;2023-08-21T14:46:29;7.82;;;1.98;;
28760;SDS011;15917;50.014;8.352;2023-08-21T14:48:55;3.67;;;1.70;;
28760;SDS011;15917;50.014;8.352;2023-08-21T14:51:20;5.45;;;1.75;;